Time;durP1;ratioP1;P1;durP2;ratioP2;P2;SDS_P1;SDS_P2;PMS_P1;PMS_P2;Temp;Humidity;BMP_temperature;BMP_pressure;BME280_temperature;BME280_humidity;BME280_pressure;Samples;Min_cycle;Max_cycle;Signal;HPM_P1;HPM_P2
2022/04/03 00:00:50;;;;;;;28.35;13.45;;;;;;;-149.78;100.00;50506.66;5086024;28;20088;-69
2022/04/03 00:03:16;;;;;;;26.05;12.23;;;;;;;-149.78;100.00;50559.47;5071337;28;20040;-69
2022/04/03 00:05:43;;;;;;;24.75;12.57;;;;;;;-149.78;100.00;50537.94;5075359;28;20032;-69
2022/04/03 00:08:09;;;;;;;25.40;11.73;;;;;;;-149.78;100.00;50532.06;5082860;28;20036;-70
2022/04/03 00:10:36;;;;;;;26.77;11.68;;;;;;;-149.78;100.00;50539.91;5082414;28;20040;-69
2022/04/03 00:13:03;;;;;;;25.58;11.52;;;;;;;-149.78;100.00;50506.66;5091578;28;20387;-70
2022/04/03 00:15:29;;;;;;;24.83;11.55;;;;;;;-149.78;100.00;50580.97;5073434;28;20055;-69
2022/04/03 00:17:55;;;;;;;26.63;11.35;;;;;;;-149.78;100.00;50547.72;5084547;28;20040;-69
2022/04/03 00:20:21;;;;;;;23.85;11.55;;;;;;;-149.78;100.00;50541.84;5081597;28;20032;-69
2022/04/03 00:22:50;;;;;;;24.63;11.10;;;;;;;-149.78;100.00;50518.38;5076348;28;20380;-69
2022/04/03 00:25:18;;;;;;;27.48;11.60;;;;;;;-149.78;100.00;50518.38;5087733;28;20375;-69
2022/04/03 00:27:45;;;;;;;25.08;12.07;;;;;;;-149.78;100.00;50534.03;5076521;28;20031;-70
2022/04/03 00:30:12;;;;;;;25.55;12.07;;;;;;;-149.78;100.00;50557.50;5082127;28;20033;-69
2022/04/03 00:32:38;;;;;;;23.25;10.85;;;;;;;-149.78;100.00;50549.69;5082557;28;20143;-69
2022/04/03 00:35:05;;;;;;;26.10;12.10;;;;;;;-149.78;100.00;50549.69;5074894;28;20029;-69
2022/04/03 00:37:31;;;;;;;28.13;12.23;;;;;;;-149.78;100.00;50522.28;5087548;28;20044;-69
2022/04/03 00:39:57;;;;;;;28.83;12.77;;;;;;;-149.78;100.00;50549.69;5077147;28;20046;-70
2022/04/03 00:42:24;;;;;;;29.02;12.27;;;;;;;-149.78;100.00;50532.06;5080592;28;20384;-69
2022/04/03 00:44:49;;;;;;;29.77;12.73;;;;;;;-149.78;100.00;50535.97;5085306;28;20032;-69
2022/04/03 00:47:17;;;;;;;33.70;12.18;;;;;;;-149.78;100.00;50535.97;5073247;28;20040;-69
2022/04/03 00:49:43;;;;;;;25.70;11.95;;;;;;;-149.78;100.00;50561.41;5085013;28;20029;-69
2022/04/03 00:52:08;;;;;;;24.98;10.95;;;;;;;-149.78;100.00;50545.75;5079531;28;20036;-69
2022/04/03 00:54:34;;;;;;;28.85;11.55;;;;;;;-149.78;100.00;50526.22;5079049;28;20032;-69
2022/04/03 00:57:06;;;;;;;23.17;10.50;;;;;;;-149.78;100.00;50534.03;5085656;28;20051;-69
2022/04/03 00:59:34;;;;;;;23.27;10.77;;;;;;;-149.78;100.00;50534.03;5073399;28;20092;-69
2022/04/03 01:02:00;;;;;;;24.52;10.77;;;;;;;-149.78;100.00;50528.16;5082465;28;20120;-70
2022/04/03 01:04:25;;;;;;;26.58;10.55;;;;;;;-149.78;100.00;50539.91;5080444;28;20119;-69
2022/04/03 01:06:51;;;;;;;21.08;9.57;;;;;;;-149.78;100.00;50514.47;5089969;28;20454;-70
2022/04/03 01:09:17;;;;;;;21.83;8.98;;;;;;;-149.78;100.00;50532.06;5056010;28;20564;-70
2022/04/03 01:11:44;;;;;;;23.27;8.88;;;;;;;-149.78;100.00;50541.84;5073249;28;20408;-69
2022/04/03 01:14:11;;;;;;;17.40;8.55;;;;;;;-149.78;100.00;50522.28;5082927;28;20028;-69
2022/04/03 01:16:38;;;;;;;18.13;8.75;;;;;;;-149.78;100.00;50522.28;5068946;28;20036;-69
2022/04/03 01:19:04;;;;;;;16.17;7.97;;;;;;;-149.78;100.00;50573.16;5077125;28;20044;-69
2022/04/03 01:21:30;;;;;;;20.10;8.35;;;;;;;-149.78;100.00;50545.75;5075350;28;20032;-69
2022/04/03 01:23:56;;;;;;;19.52;7.72;;;;;;;-149.78;100.00;50526.22;5080156;28;20028;-69
2022/04/03 01:26:25;;;;;;;18.15;7.75;;;;;;;-149.78;100.00;50522.28;5091040;28;20028;-69
2022/04/03 01:28:51;;;;;;;18.58;7.50;;;;;;;-149.78;100.00;50524.25;5079790;28;20038;-69
2022/04/03 01:31:18;;;;;;;15.20;6.72;;;;;;;-149.78;100.00;50534.03;5072285;28;20386;-69
2022/04/03 01:33:44;;;;;;;15.02;6.65;;;;;;;-149.78;100.00;50494.91;5094288;28;20441;-69
2022/04/03 01:36:10;;;;;;;16.73;6.93;;;;;;;-149.78;100.00;50508.59;5067369;28;20361;-68
2022/04/03 01:38:36;;;;;;;14.70;6.80;;;;;;;-149.78;100.00;50516.44;5085532;28;20040;-69
2022/04/03 01:41:01;;;;;;;18.45;6.40;;;;;;;-149.78;100.00;50539.91;5077864;28;20031;-69
2022/04/03 01:43:27;;;;;;;16.40;6.72;;;;;;;-149.78;100.00;50549.69;5092331;28;20028;-69
2022/04/03 01:45:53;;;;;;;16.92;6.22;;;;;;;-149.78;100.00;50549.69;5087694;28;20024;-69
2022/04/03 01:48:19;;;;;;;18.35;6.60;;;;;;;-149.78;100.00;50563.38;5066006;28;20032;-69
2022/04/03 01:50:46;;;;;;;14.57;6.45;;;;;;;-149.78;100.00;50520.34;5079142;28;20443;-69
2022/04/03 01:53:12;;;;;;;16.42;6.50;;;;;;;-149.78;100.00;50541.84;5089188;28;20039;-70
2022/04/03 01:55:38;;;;;;;12.52;6.05;;;;;;;-149.78;100.00;50498.81;5078451;28;20054;-69
2022/04/03 01:58:08;;;;;;;15.95;6.10;;;;;;;-149.78;100.00;50518.38;5086703;28;20500;-69
2022/04/03 02:00:34;;;;;;;17.13;6.68;;;;;;;-149.78;100.00;50537.94;5080215;28;20048;-69
2022/04/03 02:02:59;;;;;;;15.63;6.38;;;;;;;-149.78;100.00;50498.81;5081501;28;20037;-70
2022/04/03 02:05:25;;;;;;;14.90;6.13;;;;;;;-149.78;100.00;50537.94;5092722;28;20368;-69
2022/04/03 02:07:52;;;;;;;16.08;6.93;;;;;;;-149.78;100.00;50584.88;5087161;28;20025;-69
2022/04/03 02:10:18;;;;;;;15.15;6.32;;;;;;;-149.78;100.00;50514.47;5076517;28;20067;-69
2022/04/03 02:12:44;;;;;;;15.30;6.50;;;;;;;-149.78;100.00;50522.28;5088600;28;20484;-69
2022/04/03 02:15:12;;;;;;;11.55;6.07;;;;;;;-149.78;100.00;50584.88;5080361;28;20437;-69
2022/04/03 02:17:41;;;;;;;13.50;6.05;;;;;;;-149.78;100.00;50518.38;5081343;28;20036;-69
2022/04/03 02:20:09;;;;;;;13.18;6.25;;;;;;;-149.78;100.00;50534.03;5073179;28;20036;-69
2022/04/03 02:22:35;;;;;;;14.20;6.18;;;;;;;-149.78;100.00;50553.59;5080559;28;20025;-69
2022/04/03 02:25:04;;;;;;;15.65;6.40;;;;;;;-149.78;100.00;50530.13;5089225;28;20093;-69
2022/04/03 02:27:30;;;;;;;16.35;6.20;;;;;;;-149.78;100.00;50549.69;5071843;28;20062;-70
2022/04/03 02:29:56;;;;;;;15.68;6.72;;;;;;;-149.78;100.00;50510.56;5058677;28;20044;-69
2022/04/03 02:32:23;;;;;;;16.63;6.65;;;;;;;-149.78;100.00;50557.50;5078690;28;20068;-69
2022/04/03 02:34:52;;;;;;;15.35;6.97;;;;;;;-149.78;100.00;50498.81;5087728;28;20047;-69
2022/04/03 02:37:18;;;;;;;15.50;6.72;;;;;;;-149.78;100.00;50563.38;5073253;28;20127;-69
2022/04/03 02:39:47;;;;;;;18.20;6.97;;;;;;;-149.78;100.00;50557.50;5078323;28;20123;-69
2022/04/03 02:42:12;;;;;;;14.10;6.45;;;;;;;-149.78;100.00;50537.94;5082560;28;20040;-69
2022/04/03 02:44:38;;;;;;;14.70;6.82;;;;;;;-149.78;100.00;50569.22;5084479;28;20043;-69
2022/04/03 02:47:04;;;;;;;18.20;7.05;;;;;;;-149.78;100.00;50528.16;5091731;28;20514;-69
2022/04/03 02:49:30;;;;;;;21.50;7.70;;;;;;;-149.78;100.00;50547.72;5072942;28;20064;-70
2022/04/03 02:51:55;;;;;;;18.92;7.22;;;;;;;-149.78;100.00;50569.22;5089464;28;20048;-69
2022/04/03 02:54:21;;;;;;;18.40;7.43;;;;;;;-149.78;100.00;50539.91;5084144;28;20032;-69
2022/04/03 02:56:48;;;;;;;19.58;7.07;;;;;;;-149.78;100.00;50579.00;5092928;28;20048;-69
2022/04/03 02:59:13;;;;;;;18.05;7.30;;;;;;;-149.78;100.00;50553.59;5081797;28;20464;-69
2022/04/03 03:01:39;;;;;;;22.50;7.63;;;;;;;-149.78;100.00;50543.81;5086759;28;20036;-69
2022/04/03 03:04:05;;;;;;;17.33;7.22;;;;;;;-149.78;100.00;50537.94;5080698;28;20119;-70
2022/04/03 03:06:31;;;;;;;24.85;7.88;;;;;;;-149.78;100.00;50534.03;5079507;28;20032;-69
2022/04/03 03:08:57;;;;;;;19.73;8.13;;;;;;;-149.78;100.00;50565.31;5049764;28;20029;-69
2022/04/03 03:11:23;;;;;;;16.65;7.03;;;;;;;-149.78;100.00;50530.13;5088888;28;20123;-69
2022/04/03 03:13:48;;;;;;;19.10;7.55;;;;;;;-149.78;100.00;50553.59;5092527;28;20123;-69
2022/04/03 03:16:14;;;;;;;21.08;7.65;;;;;;;-149.78;100.00;50549.69;5048457;28;20468;-70
2022/04/03 03:18:40;;;;;;;20.33;7.70;;;;;;;-149.78;100.00;50541.84;5084074;28;20442;-69
2022/04/03 03:21:05;;;;;;;19.77;7.95;;;;;;;-149.78;100.00;50530.13;5057818;28;20037;-69
2022/04/03 03:23:32;;;;;;;19.02;7.75;;;;;;;-149.78;100.00;50522.28;5074383;28;20395;-69
2022/04/03 03:25:57;;;;;;;16.30;7.43;;;;;;;-149.78;100.00;50553.59;5083853;28;20044;-69
2022/04/03 03:28:23;;;;;;;21.38;7.78;;;;;;;-149.78;100.00;50510.56;5081527;28;20089;-69
2022/04/03 03:30:48;;;;;;;20.30;7.53;;;;;;;-149.78;100.00;50545.75;5077970;28;20569;-69
2022/04/03 03:33:14;;;;;;;20.17;7.10;;;;;;;-149.78;100.00;50534.03;5088177;28;20063;-69
2022/04/03 03:35:40;;;;;;;22.10;7.90;;;;;;;-149.78;100.00;50549.69;5076529;28;20085;-69
2022/04/03 03:38:07;;;;;;;21.55;8.73;;;;;;;-149.78;100.00;50522.28;5090757;28;20036;-69
2022/04/03 03:40:38;;;;;;;22.20;9.13;;;;;;;-149.78;100.00;50559.47;5062025;28;20060;-69
2022/04/03 03:43:05;;;;;;;22.02;8.68;;;;;;;-149.78;100.00;50577.06;5087081;28;20727;-69
2022/04/03 03:45:31;;;;;;;27.10;8.10;;;;;;;-149.78;100.00;50592.72;5073991;28;20475;-69
2022/04/03 03:47:59;;;;;;;20.58;8.18;;;;;;;-149.78;100.00;50541.84;5083579;28;20093;-70
2022/04/03 03:50:25;;;;;;;29.45;9.13;;;;;;;-149.78;100.00;50530.13;5081473;28;20093;-69
2022/04/03 03:52:53;;;;;;;22.40;8.85;;;;;;;-149.78;100.00;50532.06;5076953;28;20388;-69
2022/04/03 03:55:18;;;;;;;20.52;8.35;;;;;;;-149.78;100.00;50557.50;5087165;28;20031;-69
2022/04/03 03:57:45;;;;;;;21.75;8.50;;;;;;;-149.78;100.00;50522.28;5076964;28;20039;-69
2022/04/03 04:00:12;;;;;;;24.83;9.80;;;;;;;-149.78;100.00;50534.03;5082726;28;20040;-69
2022/04/03 04:02:39;;;;;;;21.73;9.65;;;;;;;-149.78;100.00;50518.38;5084657;28;20145;-69
2022/04/03 04:05:06;;;;;;;24.15;9.73;;;;;;;-149.78;100.00;50534.03;5075078;28;20468;-70
2022/04/03 04:07:44;;;;;;;24.23;9.68;;;;;;;-149.78;100.00;50526.22;5073939;28;20035;-69
2022/04/03 04:10:12;;;;;;;23.38;9.18;;;;;;;-149.78;100.00;50553.59;5090514;28;20040;-70
2022/04/03 04:12:39;;;;;;;24.98;9.07;;;;;;;-149.78;100.00;50541.84;5077850;28;20032;-69
2022/04/03 04:15:06;;;;;;;23.92;9.73;;;;;;;-149.78;100.00;50506.66;5087908;28;20467;-69
2022/04/03 04:17:36;;;;;;;26.95;10.13;;;;;;;-149.78;100.00;50541.84;5074950;28;20032;-69
2022/04/03 04:20:06;;;;;;;23.35;9.00;;;;;;;-149.78;100.00;50537.94;5082588;28;20067;-69
2022/04/03 04:22:32;;;;;;;24.85;9.90;;;;;;;-149.78;100.00;50530.13;5083538;28;20039;-69
2022/04/03 04:24:58;;;;;;;26.25;9.90;;;;;;;-149.78;100.00;50537.94;5076092;28;20033;-69
2022/04/03 04:27:24;;;;;;;23.15;10.35;;;;;;;-149.78;100.00;50502.75;5086763;28;20044;-69
2022/04/03 04:29:49;;;;;;;24.65;10.38;;;;;;;-149.78;100.00;50541.84;5076177;28;20100;-69
2022/04/03 04:32:16;;;;;;;24.85;9.70;;;;;;;-149.78;100.00;50518.38;5081729;28;20082;-69
2022/04/03 04:34:41;;;;;;;27.50;10.50;;;;;;;-149.78;100.00;50504.69;5083179;28;20144;-69
2022/04/03 04:37:07;;;;;;;30.30;10.15;;;;;;;-149.78;100.00;50549.69;5073134;28;20471;-69
2022/04/03 04:39:33;;;;;;;27.20;10.00;;;;;;;-149.78;100.00;50506.66;5057375;28;20052;-69
2022/04/03 04:41:59;;;;;;;20.38;9.85;;;;;;;-149.78;100.00;50524.25;5066154;28;20396;-69
2022/04/03 04:44:25;;;;;;;23.58;9.57;;;;;;;-149.78;100.00;50534.03;5082108;28;20374;-69
2022/04/03 04:46:51;;;;;;;24.30;9.73;;;;;;;-149.78;100.00;50518.38;5075593;28;20035;-69
2022/04/03 04:49:17;;;;;;;25.80;9.98;;;;;;;-149.78;100.00;50530.13;5070907;28;20040;-69
2022/04/03 04:51:43;;;;;;;25.42;10.27;;;;;;;-149.78;100.00;50514.47;5062178;28;20032;-69
2022/04/03 04:54:10;;;;;;;22.65;10.02;;;;;;;-149.78;100.00;50545.75;5086205;28;20040;-69
2022/04/03 04:56:36;;;;;;;22.75;9.93;;;;;;;-149.78;100.00;50498.81;5087365;28;20119;-69
2022/04/03 04:59:02;;;;;;;29.02;9.90;;;;;;;-149.78;100.00;50475.34;5078856;28;20139;-69
2022/04/03 05:01:29;;;;;;;25.88;10.23;;;;;;;-149.78;100.00;50530.13;5091722;28;20044;-69
2022/04/03 05:03:54;;;;;;;20.02;9.18;;;;;;;-149.78;100.00;50514.47;5080234;28;20031;-69
2022/04/03 05:06:22;;;;;;;20.77;9.10;;;;;;;-149.78;100.00;50502.75;5066424;28;20032;-69
2022/04/03 05:08:49;;;;;;;24.00;9.38;;;;;;;-149.78;100.00;50522.28;5088644;28;20051;-69
2022/04/03 05:11:15;;;;;;;24.60;9.13;;;;;;;-149.78;100.00;50510.56;5092058;28;20043;-69
2022/04/03 05:13:42;;;;;;;22.63;9.75;;;;;;;-149.78;100.00;50498.81;5077705;28;20040;-69
2022/04/03 05:16:10;;;;;;;19.08;8.18;;;;;;;-149.78;100.00;50520.34;5085574;28;20044;-69
2022/04/03 05:18:35;;;;;;;20.70;8.10;;;;;;;-149.78;100.00;50500.78;5086548;28;20035;-69
2022/04/03 05:21:04;;;;;;;21.92;8.05;;;;;;;-149.78;100.00;50506.66;5076493;28;20034;-69
2022/04/03 05:23:31;;;;;;;22.00;8.68;;;;;;;-149.78;100.00;50508.59;5090557;28;20115;-70
2022/04/03 05:25:58;;;;;;;15.80;7.18;;;;;;;-149.78;100.00;50500.78;5079698;28;20116;-69
2022/04/03 05:28:24;;;;;;;19.05;7.22;;;;;;;-149.78;100.00;50543.81;5083091;28;20808;-69
2022/04/03 05:30:49;;;;;;;19.55;7.88;;;;;;;-149.78;100.00;50541.84;5073729;28;20107;-69
2022/04/03 05:33:16;;;;;;;15.93;7.07;;;;;;;-149.78;100.00;50526.22;5076749;28;20045;-69
2022/04/03 05:35:42;;;;;;;15.93;6.85;;;;;;;-149.78;100.00;50514.47;5070905;28;20138;-69
2022/04/03 05:38:08;;;;;;;14.05;6.18;;;;;;;-149.78;100.00;50492.97;5082075;28;20028;-69
2022/04/03 05:40:34;;;;;;;16.25;5.93;;;;;;;-149.78;100.00;50545.75;5080344;28;20063;-69
2022/04/03 05:43:00;;;;;;;18.10;6.40;;;;;;;-149.78;100.00;50518.38;5089727;28;20063;-69
2022/04/03 05:45:26;;;;;;;11.50;5.88;;;;;;;-149.78;100.00;50479.28;5076176;28;20047;-69
2022/04/03 05:47:53;;;;;;;13.25;5.88;;;;;;;-149.78;100.00;50508.59;5069823;28;20025;-69
2022/04/03 05:50:20;;;;;;;10.27;5.05;;;;;;;-149.78;100.00;50534.03;5076185;28;20368;-69
2022/04/03 05:52:48;;;;;;;11.52;5.15;;;;;;;-149.78;100.00;50487.09;5078899;28;20379;-70
2022/04/03 05:55:16;;;;;;;11.80;4.53;;;;;;;-149.78;100.00;50502.75;5090517;28;20040;-69
2022/04/03 05:57:43;;;;;;;7.72;3.97;;;;;;;-149.78;100.00;50541.84;5077406;28;20584;-69
2022/04/03 06:00:12;;;;;;;11.52;4.63;;;;;;;-149.78;100.00;50510.56;5093345;28;20089;-70
2022/04/03 06:02:51;;;;;;;;;;;;;;;-149.78;100.00;50534.03;5079508;28;20071;-69
2022/04/03 06:05:18;;;;;;;12.23;4.53;;;;;;;-149.78;100.00;50487.09;5089128;28;19961;-69
2022/04/03 06:07:44;;;;;;;11.77;4.90;;;;;;;-149.78;100.00;50492.97;5078611;28;20024;-69
2022/04/03 06:10:10;;;;;;;14.35;5.35;;;;;;;-149.78;100.00;50498.81;5093650;28;20032;-69
2022/04/03 06:12:37;;;;;;;12.90;5.15;;;;;;;-149.78;100.00;50502.75;5079780;28;20032;-69
2022/04/03 06:15:03;;;;;;;13.10;5.88;;;;;;;-149.78;100.00;50467.53;5088694;28;20451;-72
2022/04/03 06:17:29;;;;;;;13.60;6.03;;;;;;;-149.78;100.00;50506.66;5090475;28;20562;-72
2022/04/03 06:19:54;;;;;;;13.43;6.18;;;;;;;-149.78;100.00;50502.75;5078993;28;20036;-72
2022/04/03 06:22:20;;;;;;;17.98;7.03;;;;;;;-149.78;100.00;50508.59;5083325;28;20123;-72
2022/04/03 06:24:46;;;;;;;15.13;6.35;;;;;;;-149.78;100.00;50463.63;5085734;28;20036;-72
2022/04/03 06:27:11;;;;;;;14.55;6.05;;;;;;;-149.78;100.00;50483.19;5092433;28;20038;-71
2022/04/03 06:29:37;;;;;;;18.10;6.75;;;;;;;-149.78;100.00;50530.13;5077439;28;20032;-72
2022/04/03 06:32:03;;;;;;;13.43;6.78;;;;;;;-149.78;100.00;50491.00;5085033;28;20124;-72
2022/04/03 06:34:29;;;;;;;17.23;7.65;;;;;;;-149.78;100.00;50479.28;5086967;28;20517;-72
2022/04/03 06:36:55;;;;;;;16.45;7.75;;;;;;;-149.78;100.00;50491.00;5078110;28;20032;-72
2022/04/03 06:39:20;;;;;;;15.80;7.05;;;;;;;-149.78;100.00;50494.91;5089807;28;20044;-72
2022/04/03 06:41:46;;;;;;;16.50;7.82;;;;;;;-149.78;100.00;50489.03;5079302;28;20094;-72
2022/04/03 06:44:12;;;;;;;18.05;8.00;;;;;;;-149.78;100.00;50469.50;5073060;28;20115;-72
2022/04/03 06:46:38;;;;;;;18.48;7.72;;;;;;;-149.78;100.00;50479.28;5078464;28;20538;-69
2022/04/03 06:49:03;;;;;;;15.95;8.00;;;;;;;-149.78;100.00;50494.91;5075744;28;20139;-70
2022/04/03 06:51:29;;;;;;;16.55;8.30;;;;;;;-149.78;100.00;50469.50;5078052;28;20055;-69
2022/04/03 06:53:55;;;;;;;17.10;8.77;;;;;;;-149.78;100.00;50475.34;5076626;28;20472;-69
2022/04/03 06:56:22;;;;;;;17.80;8.90;;;;;;;-149.78;100.00;50483.19;5074980;28;20032;-70
2022/04/03 06:58:48;;;;;;;19.58;8.98;;;;;;;-149.78;100.00;50440.16;5076901;28;20115;-71
2022/04/03 07:01:13;;;;;;;18.13;8.93;;;;;;;-149.78;100.00;50487.09;5070011;28;20063;-72
2022/04/03 07:03:39;;;;;;;19.88;9.60;;;;;;;-149.78;100.00;50471.44;5074227;28;20024;-70
2022/04/03 07:06:04;;;;;;;20.67;8.15;;;;;;;-149.78;100.00;50487.09;5087842;28;20359;-72
2022/04/03 07:08:32;;;;;;;18.35;9.00;;;;;;;-149.78;100.00;50498.81;5066517;28;20028;-72
2022/04/03 07:10:57;;;;;;;17.30;8.50;;;;;;;-149.78;100.00;50487.09;5081934;28;20569;-66
2022/04/03 07:13:23;;;;;;;19.85;8.95;;;;;;;-149.78;100.00;50449.94;5072957;28;20036;-70
2022/04/03 07:15:51;;;;;;;20.05;8.55;;;;;;;-149.78;100.00;50481.22;5061991;28;20064;-73
2022/04/03 07:18:17;;;;;;;17.88;8.02;;;;;;;-149.78;100.00;50428.41;5077704;28;20033;-74
2022/04/03 07:20:46;;;;;;;14.60;7.95;;;;;;;-149.78;100.00;50487.09;5062563;28;20097;-74
2022/04/03 07:23:13;;;;;;;17.13;8.52;;;;;;;-149.78;100.00;50498.81;5073358;28;20484;-70
2022/04/03 07:25:38;;;;;;;15.73;7.63;;;;;;;-149.78;100.00;50502.75;5076369;28;20043;-70
2022/04/03 07:28:04;;;;;;;17.33;8.07;;;;;;;-149.78;100.00;50459.72;5075602;28;20385;-72
2022/04/03 07:30:30;;;;;;;17.38;8.27;;;;;;;-149.78;100.00;50471.44;5085571;28;20032;-70
2022/04/03 07:32:56;;;;;;;16.23;7.75;;;;;;;-149.78;100.00;50475.34;5073748;28;20052;-71
2022/04/03 07:35:22;;;;;;;17.83;8.35;;;;;;;-149.78;100.00;50487.09;5084645;28;20036;-70
2022/04/03 07:37:47;;;;;;;15.85;7.68;;;;;;;-149.78;100.00;50481.22;5065406;28;20039;-71
2022/04/03 07:40:14;;;;;;;17.20;7.57;;;;;;;-149.78;100.00;50479.28;5079541;28;20024;-71
2022/04/03 07:42:40;;;;;;;16.98;7.40;;;;;;;-149.78;100.00;50440.16;5077482;28;20058;-71
2022/04/03 07:45:06;;;;;;;18.50;7.30;;;;;;;-149.78;100.00;50471.44;5072362;28;20431;-71
2022/04/03 07:47:31;;;;;;;16.30;7.80;;;;;;;-149.78;100.00;50471.44;5074395;28;20037;-71
2022/04/03 07:49:59;;;;;;;15.35;7.93;;;;;;;-149.78;100.00;50455.81;5082963;28;20446;-72
2022/04/03 07:52:25;;;;;;;15.75;8.30;;;;;;;-149.78;100.00;50479.28;5079132;28;20031;-71
2022/04/03 07:54:51;;;;;;;23.13;9.23;;;;;;;-149.78;100.00;50467.53;5092276;28;20042;-72
2022/04/03 07:57:19;;;;;;;18.42;8.73;;;;;;;-149.78;100.00;50408.84;5038745;28;20044;-74
2022/04/03 07:59:46;;;;;;;20.35;9.63;;;;;;;-149.78;100.00;50467.53;5081747;28;20039;-74
2022/04/03 08:02:13;;;;;;;18.42;8.32;;;;;;;-149.78;100.00;50447.97;5071842;28;20047;-74
2022/04/03 08:04:38;;;;;;;14.88;8.00;;;;;;;-149.78;100.00;50451.88;5079667;28;20036;-73
2022/04/03 08:07:04;;;;;;;16.20;8.07;;;;;;;-149.78;100.00;50467.53;5090644;28;20046;-71
2022/04/03 08:09:30;;;;;;;16.85;7.40;;;;;;;-149.78;100.00;50467.53;5080073;28;20123;-74
2022/04/03 08:11:56;;;;;;;15.90;7.72;;;;;;;-149.78;100.00;50459.72;5077216;28;20058;-73
2022/04/03 08:14:22;;;;;;;14.77;7.38;;;;;;;-149.78;100.00;50424.50;5062891;28;20032;-74
2022/04/03 08:16:48;;;;;;;15.13;7.45;;;;;;;-149.78;100.00;50428.41;5084015;28;20036;-74
2022/04/03 08:19:14;;;;;;;15.13;8.07;;;;;;;-149.78;100.00;50424.50;5057109;28;20036;-73
2022/04/03 08:21:41;;;;;;;17.77;8.18;;;;;;;-149.78;100.00;50414.72;5068897;28;20032;-74
2022/04/03 08:24:06;;;;;;;16.05;7.70;;;;;;;-149.78;100.00;50465.56;5079686;28;20028;-74
2022/04/03 08:26:32;;;;;;;13.63;7.28;;;;;;;-149.78;100.00;50420.59;5083786;28;20043;-74
2022/04/03 08:28:58;;;;;;;17.92;8.05;;;;;;;-149.78;100.00;50459.72;5090255;28;20032;-74
2022/04/03 08:31:24;;;;;;;15.27;8.25;;;;;;;-149.78;100.00;50430.38;5056462;28;20033;-73
2022/04/03 08:33:51;;;;;;;15.10;7.43;;;;;;;-149.78;100.00;50428.41;5051798;28;20076;-73
2022/04/03 08:36:17;;;;;;;19.45;8.80;;;;;;;-149.78;100.00;50447.97;5082332;28;20071;-74
2022/04/03 08:38:44;;;;;;;16.63;8.45;;;;;;;-149.78;100.00;50459.72;5078727;28;20373;-73
2022/04/03 08:41:10;;;;;;;18.00;8.57;;;;;;;-149.78;100.00;50492.97;5076823;28;20115;-73
2022/04/03 08:43:36;;;;;;;14.80;8.00;;;;;;;-149.78;100.00;50440.16;5082153;28;20028;-73
2022/04/03 08:46:06;;;;;;;21.60;8.70;;;;;;;-149.78;100.00;50455.81;5093500;28;20151;-73
2022/04/03 08:48:32;;;;;;;18.27;8.25;;;;;;;-149.78;100.00;50463.63;5082098;28;20029;-73
2022/04/03 08:51:01;;;;;;;15.63;8.20;;;;;;;-149.78;100.00;50491.00;5090713;28;20032;-73
2022/04/03 08:53:30;;;;;;;14.52;7.65;;;;;;;-149.78;100.00;50471.44;5086253;28;20039;-74
2022/04/03 08:55:55;;;;;;;16.88;7.97;;;;;;;-149.78;100.00;50434.28;5079938;28;20028;-74
2022/04/03 08:58:21;;;;;;;14.13;7.47;;;;;;;-149.78;100.00;50432.31;5084893;28;20037;-74
2022/04/03 09:00:47;;;;;;;15.35;7.85;;;;;;;-149.78;100.00;50432.31;5071658;28;20031;-74
2022/04/03 09:03:13;;;;;;;17.10;8.13;;;;;;;-149.78;100.00;50401.03;5094488;28;20036;-74
2022/04/03 09:05:41;;;;;;;15.02;7.40;;;;;;;-149.78;100.00;50412.78;5086717;28;20036;-74
2022/04/03 09:08:09;;;;;;;16.67;7.22;;;;;;;-149.78;100.00;50447.97;5094573;28;20024;-75
2022/04/03 09:10:35;;;;;;;12.20;7.03;;;;;;;-149.78;100.00;50451.88;5081634;28;20479;-77
2022/04/03 09:13:01;;;;;;;14.15;7.28;;;;;;;-149.78;100.00;50467.53;5074772;28;20033;-74
2022/04/03 09:15:28;;;;;;;14.38;7.55;;;;;;;-149.78;100.00;50422.56;5078008;28;20031;-75
2022/04/03 09:17:56;;;;;;;17.48;7.00;;;;;;;-149.78;100.00;50420.59;5087168;28;20419;-74
2022/04/03 09:20:24;;;;;;;16.33;7.43;;;;;;;-149.78;100.00;50389.31;5084340;28;20028;-75
2022/04/03 09:22:52;;;;;;;15.15;7.43;;;;;;;-149.78;100.00;50428.41;5095307;28;20030;-76
2022/04/03 09:25:40;;;;;;;15.30;7.93;;;;;;;-149.78;100.00;50483.19;5086863;28;20403;-76
2022/04/03 09:28:07;;;;;;;13.65;7.53;;;;;;;-149.78;100.00;50412.78;5079880;28;20024;-76
2022/04/03 09:30:35;;;;;;;16.50;7.65;;;;;;;-149.78;100.00;50422.56;5081510;28;20032;-76
2022/04/03 09:33:02;;;;;;;15.32;7.80;;;;;;;-149.78;100.00;50440.16;5076829;28;20071;-76
2022/04/03 09:35:30;;;;;;;16.80;7.32;;;;;;;-149.78;100.00;50463.63;5079749;28;20407;-75
2022/04/03 09:38:13;;;;;;;12.82;7.15;;;;;;;-149.78;100.00;50408.84;5076335;28;20089;-76
2022/04/03 09:40:48;;;;;;;15.30;7.82;;;;;;;-149.78;100.00;50401.03;5081643;28;20629;-76
2022/04/03 09:43:21;;;;;;;12.05;7.00;;;;;;;-149.78;100.00;50436.25;5074938;28;20063;-76
2022/04/03 09:45:58;;;;;;;13.48;6.88;;;;;;;-149.78;100.00;50440.16;5086103;28;20032;-75
2022/04/03 09:48:26;;;;;;;13.18;7.00;;;;;;;-149.78;100.00;50432.31;5066467;28;20028;-75
2022/04/03 09:50:56;;;;;;;11.70;6.10;;;;;;;-149.78;100.00;50436.25;5071186;28;20506;-75
2022/04/03 09:53:23;;;;;;;13.40;6.22;;;;;;;-149.78;100.00;50412.78;5078131;28;20114;-75
2022/04/03 09:55:49;;;;;;;11.90;5.90;;;;;;;-149.78;100.00;50410.81;5080939;28;20040;-75
2022/04/03 09:58:16;;;;;;;11.80;5.70;;;;;;;-149.78;100.00;50385.38;5083443;28;20036;-75
2022/04/03 10:00:42;;;;;;;9.95;5.22;;;;;;;-149.78;100.00;50428.41;5074153;28;20035;-75
2022/04/03 10:03:12;;;;;;;12.52;5.32;;;;;;;-149.78;100.00;50369.75;5088558;28;20036;-76
2022/04/03 10:05:38;;;;;;;8.70;5.38;;;;;;;-149.78;100.00;50385.38;5079780;28;20070;-75
2022/04/03 10:08:06;;;;;;;8.35;5.68;;;;;;;-149.78;100.00;50377.56;5077168;28;20040;-75
2022/04/03 10:10:34;;;;;;;12.75;6.60;;;;;;;-149.78;100.00;50354.09;5081749;28;20416;-75
2022/04/03 10:13:02;;;;;;;12.27;5.38;;;;;;;-149.78;100.00;50389.31;5081240;28;20113;-76
2022/04/03 10:15:29;;;;;;;13.30;5.35;;;;;;;-149.78;100.00;50291.50;5084328;28;20487;-74
2022/04/03 10:17:55;;;;;;;8.88;5.13;;;;;;;-149.78;100.00;50303.25;5083042;28;20434;-77
2022/04/03 10:20:25;;;;;;;8.77;4.55;;;;;;;-149.78;85.17;50248.50;5081314;28;20166;-75
2022/04/03 10:22:56;;;;;;;6.28;4.28;;;;;;;-149.78;54.16;50236.75;5075527;28;20174;-76
2022/04/03 10:25:31;;;;;;;4.93;3.42;;;;;;;-149.78;48.13;50225.03;5092718;28;20035;-75
2022/04/03 10:28:02;;;;;;;7.00;4.28;;;;;;;-149.78;46.09;50199.59;5085410;28;20047;-74
2022/04/03 10:30:39;;;;;;;5.90;3.78;;;;;;;-149.78;43.61;50189.81;5081479;28;20043;-75
2022/04/03 10:33:08;;;;;;;4.45;3.28;;;;;;;-149.78;40.37;50170.25;5084977;28;20048;-76
2022/04/03 10:35:36;;;;;;;4.35;3.05;;;;;;;-149.78;38.49;50162.44;5058393;28;20101;-74
2022/04/03 10:38:05;;;;;;;3.95;2.75;;;;;;;-149.78;37.91;50174.19;5073183;28;20033;-74
2022/04/03 10:40:35;;;;;;;4.60;3.20;;;;;;;-149.78;39.80;50223.06;5084338;28;20035;-76
2022/04/03 10:43:05;;;;;;;5.40;3.45;;;;;;;-149.78;39.19;50195.69;5073352;28;20120;-75
2022/04/03 10:45:32;;;;;;;7.32;4.57;;;;;;;-149.78;40.54;50182.00;5080530;28;20028;-75
2022/04/03 10:48:20;;;;;;;5.82;3.85;;;;;;;-149.78;40.38;50213.28;5077839;28;20024;-75
2022/04/03 10:51:23;;;;;;;5.25;4.10;;;;;;;-149.78;40.90;50201.56;5079305;28;20059;-75
2022/04/03 10:53:59;;;;;;;6.43;4.28;;;;;;;-149.78;40.25;50221.13;5080392;28;20037;-74
2022/04/03 10:56:27;;;;;;;6.55;4.20;;;;;;;-149.78;39.51;50189.81;5079217;28;20050;-74
2022/04/03 10:58:56;;;;;;;6.20;4.68;;;;;;;-149.78;40.80;50182.00;5080733;28;20020;-75
2022/04/03 11:01:23;;;;;;;5.82;3.75;;;;;;;-149.78;39.70;50178.09;5077587;28;20081;-75